sensor_id;sensor_type;location;lat;lon;timestamp;P1;durP1;ratioP1;P2;durP2;ratioP2
41923;SDS011;27613;48.116;11.656;2022-08-19T00:01:18;5.93;;;4.72;;
41923;SDS011;27613;48.116;11.656;2022-08-19T00:03:44;6.57;;;4.00;;
41923;SDS011;27613;48.116;11.656;2022-08-19T00:06:09;6.07;;;3.90;;
41923;SDS011;27613;48.116;11.656;2022-08-19T00:08:35;7.05;;;4.53;;
41923;SDS011;27613;48.116;11.656;2022-08-19T00:11:01;4.68;;;3.45;;
41923;SDS011;27613;48.116;11.656;2022-08-19T00:13:27;4.68;;;3.63;;
41923;SDS011;27613;48.116;11.656;2022-08-19T00:15:53;3.78;;;3.35;;
41923;SDS011;27613;48.116;11.656;2022-08-19T00:18:20;4.03;;;3.35;;
41923;SDS011;27613;48.116;11.656;2022-08-19T00:20:46;5.03;;;3.25;;
41923;SDS011;27613;48.116;11.656;2022-08-19T00:23:11;3.75;;;3.17;;
41923;SDS011;27613;48.116;11.656;2022-08-19T00:25:37;4.50;;;3.75;;
41923;SDS011;27613;48.116;11.656;2022-08-19T00:28:03;4.03;;;3.33;;
41923;SDS011;27613;48.116;11.656;2022-08-19T00:30:29;4.28;;;3.78;;
41923;SDS011;27613;48.116;11.656;2022-08-19T00:32:55;4.32;;;3.53;;
41923;SDS011;27613;48.116;11.656;2022-08-19T00:35:22;4.03;;;3.60;;
41923;SDS011;27613;48.116;11.656;2022-08-19T00:37:49;3.90;;;3.50;;
41923;SDS011;27613;48.116;11.656;2022-08-19T00:40:15;5.88;;;4.40;;
41923;SDS011;27613;48.116;11.656;2022-08-19T00:42:43;6.53;;;4.78;;
41923;SDS011;27613;48.116;11.656;2022-08-19T00:45:14;4.90;;;4.07;;
41923;SDS011;27613;48.116;11.656;2022-08-19T00:47:45;6.95;;;5.28;;
41923;SDS011;27613;48.116;11.656;2022-08-19T00:50:11;6.05;;;4.45;;
41923;SDS011;27613;48.116;11.656;2022-08-19T00:52:41;4.95;;;3.97;;
41923;SDS011;27613;48.116;11.656;2022-08-19T00:55:10;4.95;;;4.40;;
41923;SDS011;27613;48.116;11.656;2022-08-19T00:58:02;6.05;;;4.22;;
41923;SDS011;27613;48.116;11.656;2022-08-19T01:00:32;4.95;;;4.45;;
41923;SDS011;27613;48.116;11.656;2022-08-19T01:03:02;6.70;;;4.68;;
41923;SDS011;27613;48.116;11.656;2022-08-19T01:05:30;4.93;;;4.40;;
41923;SDS011;27613;48.116;11.656;2022-08-19T01:07:56;6.65;;;5.10;;
41923;SDS011;27613;48.116;11.656;2022-08-19T01:10:26;7.72;;;5.47;;
41923;SDS011;27613;48.116;11.656;2022-08-19T01:12:54;5.93;;;5.05;;
41923;SDS011;27613;48.116;11.656;2022-08-19T01:15:21;5.30;;;4.65;;
41923;SDS011;27613;48.116;11.656;2022-08-19T01:17:51;6.38;;;4.60;;
41923;SDS011;27613;48.116;11.656;2022-08-19T01:20:19;5.82;;;4.88;;
41923;SDS011;27613;48.116;11.656;2022-08-19T01:25:22;7.30;;;5.53;;
41923;SDS011;27613;48.116;11.656;2022-08-19T01:30:23;6.68;;;5.97;;
41923;SDS011;27613;48.116;11.656;2022-08-19T01:32:52;6.50;;;5.38;;
41923;SDS011;27613;48.116;11.656;2022-08-19T01:35:19;11.48;;;6.18;;
41923;SDS011;27613;48.116;11.656;2022-08-19T01:37:53;6.63;;;5.93;;
41923;SDS011;27613;48.116;11.656;2022-08-19T01:40:25;9.27;;;6.70;;
41923;SDS011;27613;48.116;11.656;2022-08-19T01:42:54;6.88;;;5.63;;
41923;SDS011;27613;48.116;11.656;2022-08-19T01:45:21;6.95;;;5.65;;
41923;SDS011;27613;48.116;11.656;2022-08-19T01:47:49;6.28;;;5.47;;
41923;SDS011;27613;48.116;11.656;2022-08-19T01:50:15;8.30;;;5.10;;
41923;SDS011;27613;48.116;11.656;2022-08-19T01:52:42;7.88;;;5.80;;
41923;SDS011;27613;48.116;11.656;2022-08-19T01:55:10;6.63;;;5.18;;
41923;SDS011;27613;48.116;11.656;2022-08-19T01:57:38;6.53;;;5.20;;
41923;SDS011;27613;48.116;11.656;2022-08-19T02:00:06;8.10;;;5.05;;
41923;SDS011;27613;48.116;11.656;2022-08-19T02:02:35;6.00;;;4.82;;
41923;SDS011;27613;48.116;11.656;2022-08-19T02:05:00;6.10;;;5.07;;
41923;SDS011;27613;48.116;11.656;2022-08-19T02:07:27;7.60;;;4.90;;
41923;SDS011;27613;48.116;11.656;2022-08-19T02:09:53;5.93;;;4.47;;
41923;SDS011;27613;48.116;11.656;2022-08-19T02:12:20;5.45;;;4.50;;
41923;SDS011;27613;48.116;11.656;2022-08-19T02:14:46;5.90;;;4.47;;
41923;SDS011;27613;48.116;11.656;2022-08-19T02:17:12;8.02;;;4.75;;
41923;SDS011;27613;48.116;11.656;2022-08-19T02:19:37;8.82;;;4.72;;
41923;SDS011;27613;48.116;11.656;2022-08-19T02:22:03;6.40;;;4.32;;
41923;SDS011;27613;48.116;11.656;2022-08-19T02:24:29;5.65;;;4.50;;
41923;SDS011;27613;48.116;11.656;2022-08-19T02:26:55;5.72;;;4.70;;
41923;SDS011;27613;48.116;11.656;2022-08-19T02:29:20;5.15;;;4.35;;
41923;SDS011;27613;48.116;11.656;2022-08-19T02:31:46;6.50;;;4.63;;
41923;SDS011;27613;48.116;11.656;2022-08-19T02:34:12;7.80;;;4.63;;
41923;SDS011;27613;48.116;11.656;2022-08-19T02:36:37;5.13;;;4.15;;
41923;SDS011;27613;48.116;11.656;2022-08-19T02:39:03;4.57;;;3.58;;
41923;SDS011;27613;48.116;11.656;2022-08-19T02:41:29;3.70;;;3.28;;
41923;SDS011;27613;48.116;11.656;2022-08-19T02:43:58;8.98;;;3.63;;
41923;SDS011;27613;48.116;11.656;2022-08-19T02:46:27;6.30;;;4.03;;
41923;SDS011;27613;48.116;11.656;2022-08-19T02:48:55;4.88;;;3.90;;
41923;SDS011;27613;48.116;11.656;2022-08-19T02:51:27;4.07;;;3.40;;
41923;SDS011;27613;48.116;11.656;2022-08-19T02:54:03;4.35;;;3.05;;
41923;SDS011;27613;48.116;11.656;2022-08-19T02:56:30;4.35;;;3.50;;
41923;SDS011;27613;48.116;11.656;2022-08-19T02:58:56;4.10;;;3.58;;
41923;SDS011;27613;48.116;11.656;2022-08-19T03:01:24;11.15;;;4.25;;
41923;SDS011;27613;48.116;11.656;2022-08-19T03:03:52;5.97;;;4.00;;
41923;SDS011;27613;48.116;11.656;2022-08-19T03:06:19;4.68;;;3.58;;
41923;SDS011;27613;48.116;11.656;2022-08-19T03:08:45;4.65;;;3.78;;
41923;SDS011;27613;48.116;11.656;2022-08-19T03:11:12;4.35;;;3.85;;
41923;SDS011;27613;48.116;11.656;2022-08-19T03:13:39;5.85;;;4.07;;
41923;SDS011;27613;48.116;11.656;2022-08-19T03:16:05;7.05;;;4.35;;
41923;SDS011;27613;48.116;11.656;2022-08-19T03:18:31;4.10;;;3.60;;
41923;SDS011;27613;48.116;11.656;2022-08-19T03:20:57;4.32;;;3.92;;
41923;SDS011;27613;48.116;11.656;2022-08-19T03:23:22;5.50;;;3.85;;
41923;SDS011;27613;48.116;11.656;2022-08-19T03:25:49;4.18;;;3.72;;
41923;SDS011;27613;48.116;11.656;2022-08-19T03:28:16;4.88;;;4.25;;
41923;SDS011;27613;48.116;11.656;2022-08-19T03:30:43;9.07;;;5.20;;
41923;SDS011;27613;48.116;11.656;2022-08-19T03:33:23;5.90;;;3.83;;
41923;SDS011;27613;48.116;11.656;2022-08-19T03:38:40;4.43;;;4.00;;
41923;SDS011;27613;48.116;11.656;2022-08-19T03:41:17;5.45;;;4.00;;
41923;SDS011;27613;48.116;11.656;2022-08-19T03:43:45;7.75;;;3.97;;
41923;SDS011;27613;48.116;11.656;2022-08-19T03:46:15;4.63;;;3.58;;
41923;SDS011;27613;48.116;11.656;2022-08-19T03:48:47;5.25;;;3.33;;
41923;SDS011;27613;48.116;11.656;2022-08-19T03:51:22;4.50;;;3.88;;
41923;SDS011;27613;48.116;11.656;2022-08-19T03:53:52;4.88;;;3.75;;
41923;SDS011;27613;48.116;11.656;2022-08-19T03:56:19;5.38;;;3.90;;
41923;SDS011;27613;48.116;11.656;2022-08-19T03:58:45;7.53;;;4.07;;
41923;SDS011;27613;48.116;11.656;2022-08-19T04:01:13;17.42;;;4.00;;
41923;SDS011;27613;48.116;11.656;2022-08-19T04:03:42;4.68;;;3.42;;
41923;SDS011;27613;48.116;11.656;2022-08-19T04:06:16;6.25;;;4.10;;
41923;SDS011;27613;48.116;11.656;2022-08-19T04:08:45;4.13;;;3.40;;
41923;SDS011;27613;48.116;11.656;2022-08-19T04:11:13;4.40;;;3.25;;
41923;SDS011;27613;48.116;11.656;2022-08-19T04:13:41;5.20;;;3.72;;
41923;SDS011;27613;48.116;11.656;2022-08-19T04:16:09;4.65;;;3.70;;
41923;SDS011;27613;48.116;11.656;2022-08-19T04:18:36;4.65;;;4.00;;
41923;SDS011;27613;48.116;11.656;2022-08-19T04:21:02;4.97;;;3.58;;
41923;SDS011;27613;48.116;11.656;2022-08-19T04:23:28;5.80;;;4.25;;
41923;SDS011;27613;48.116;11.656;2022-08-19T04:25:54;5.57;;;4.05;;
41923;SDS011;27613;48.116;11.656;2022-08-19T04:28:20;5.18;;;4.00;;
41923;SDS011;27613;48.116;11.656;2022-08-19T04:30:48;5.25;;;4.18;;
41923;SDS011;27613;48.116;11.656;2022-08-19T04:33:16;6.30;;;4.57;;
41923;SDS011;27613;48.116;11.656;2022-08-19T04:35:45;5.63;;;3.90;;
41923;SDS011;27613;48.116;11.656;2022-08-19T04:38:12;4.72;;;3.80;;
41923;SDS011;27613;48.116;11.656;2022-08-19T04:40:45;6.13;;;4.18;;
41923;SDS011;27613;48.116;11.656;2022-08-19T04:43:31;5.28;;;4.30;;
41923;SDS011;27613;48.116;11.656;2022-08-19T04:45:57;8.40;;;5.32;;
41923;SDS011;27613;48.116;11.656;2022-08-19T04:48:23;7.60;;;4.80;;
41923;SDS011;27613;48.116;11.656;2022-08-19T04:50:52;5.57;;;4.82;;
41923;SDS011;27613;48.116;11.656;2022-08-19T04:53:23;6.13;;;4.43;;
41923;SDS011;27613;48.116;11.656;2022-08-19T04:55:53;6.95;;;4.70;;
41923;SDS011;27613;48.116;11.656;2022-08-19T04:58:19;8.57;;;5.45;;
41923;SDS011;27613;48.116;11.656;2022-08-19T05:00:45;5.65;;;4.25;;
41923;SDS011;27613;48.116;11.656;2022-08-19T05:03:11;6.72;;;4.30;;
41923;SDS011;27613;48.116;11.656;2022-08-19T05:05:40;6.00;;;4.30;;
41923;SDS011;27613;48.116;11.656;2022-08-19T05:08:06;6.68;;;4.85;;
41923;SDS011;27613;48.116;11.656;2022-08-19T05:10:34;5.82;;;4.25;;
41923;SDS011;27613;48.116;11.656;2022-08-19T05:13:01;4.88;;;4.00;;
41923;SDS011;27613;48.116;11.656;2022-08-19T05:15:27;5.90;;;4.72;;
41923;SDS011;27613;48.116;11.656;2022-08-19T05:17:53;6.10;;;4.15;;
41923;SDS011;27613;48.116;11.656;2022-08-19T05:20:37;6.57;;;5.10;;
41923;SDS011;27613;48.116;11.656;2022-08-19T05:23:22;7.35;;;4.43;;
41923;SDS011;27613;48.116;11.656;2022-08-19T05:25:48;5.78;;;4.32;;
41923;SDS011;27613;48.116;11.656;2022-08-19T05:28:15;5.68;;;4.00;;
41923;SDS011;27613;48.116;11.656;2022-08-19T05:30:40;5.35;;;4.45;;
41923;SDS011;27613;48.116;11.656;2022-08-19T05:33:08;5.00;;;3.72;;
41923;SDS011;27613;48.116;11.656;2022-08-19T05:35:35;4.63;;;3.92;;
41923;SDS011;27613;48.116;11.656;2022-08-19T05:38:02;4.47;;;3.70;;
41923;SDS011;27613;48.116;11.656;2022-08-19T05:40:28;5.03;;;3.85;;
41923;SDS011;27613;48.116;11.656;2022-08-19T05:42:54;4.90;;;3.58;;
41923;SDS011;27613;48.116;11.656;2022-08-19T05:45:20;5.47;;;3.88;;
41923;SDS011;27613;48.116;11.656;2022-08-19T05:47:46;4.95;;;3.50;;
41923;SDS011;27613;48.116;11.656;2022-08-19T05:50:12;4.95;;;3.63;;
41923;SDS011;27613;48.116;11.656;2022-08-19T05:52:38;8.30;;;3.78;;
41923;SDS011;27613;48.116;11.656;2022-08-19T05:55:04;6.70;;;3.95;;
41923;SDS011;27613;48.116;11.656;2022-08-19T05:57:30;5.95;;;4.35;;
41923;SDS011;27613;48.116;11.656;2022-08-19T05:59:56;5.55;;;4.00;;
41923;SDS011;27613;48.116;11.656;2022-08-19T06:02:22;5.35;;;4.32;;
41923;SDS011;27613;48.116;11.656;2022-08-19T06:04:48;5.90;;;4.28;;
41923;SDS011;27613;48.116;11.656;2022-08-19T06:07:14;6.35;;;4.45;;
41923;SDS011;27613;48.116;11.656;2022-08-19T06:09:40;6.22;;;4.28;;
41923;SDS011;27613;48.116;11.656;2022-08-19T06:12:06;7.97;;;5.07;;
41923;SDS011;27613;48.116;11.656;2022-08-19T06:14:32;6.20;;;4.72;;
41923;SDS011;27613;48.116;11.656;2022-08-19T06:16:59;6.68;;;5.35;;
41923;SDS011;27613;48.116;11.656;2022-08-19T06:19:27;9.38;;;6.30;;
41923;SDS011;27613;48.116;11.656;2022-08-19T06:21:58;7.10;;;5.70;;
41923;SDS011;27613;48.116;11.656;2022-08-19T06:24:25;7.40;;;6.55;;
41923;SDS011;27613;48.116;11.656;2022-08-19T06:26:53;6.82;;;6.13;;
41923;SDS011;27613;48.116;11.656;2022-08-19T06:29:30;8.77;;;6.65;;
41923;SDS011;27613;48.116;11.656;2022-08-19T06:32:07;7.88;;;6.65;;
41923;SDS011;27613;48.116;11.656;2022-08-19T06:34:36;9.57;;;7.57;;
41923;SDS011;27613;48.116;11.656;2022-08-19T06:37:30;9.43;;;7.63;;
41923;SDS011;27613;48.116;11.656;2022-08-19T06:43:04;11.95;;;7.90;;
41923;SDS011;27613;48.116;11.656;2022-08-19T06:46:14;10.05;;;7.78;;
41923;SDS011;27613;48.116;11.656;2022-08-19T06:48:50;7.25;;;6.43;;
41923;SDS011;27613;48.116;11.656;2022-08-19T06:51:21;10.25;;;8.02;;
41923;SDS011;27613;48.116;11.656;2022-08-19T06:53:49;9.10;;;8.10;;
41923;SDS011;27613;48.116;11.656;2022-08-19T06:56:20;9.57;;;7.80;;
41923;SDS011;27613;48.116;11.656;2022-08-19T06:58:50;8.88;;;6.55;;
41923;SDS011;27613;48.116;11.656;2022-08-19T07:01:20;8.25;;;6.57;;
41923;SDS011;27613;48.116;11.656;2022-08-19T07:09:49;10.65;;;8.70;;
41923;SDS011;27613;48.116;11.656;2022-08-19T07:12:18;8.90;;;7.97;;
41923;SDS011;27613;48.116;11.656;2022-08-19T07:14:56;11.20;;;8.82;;
41923;SDS011;27613;48.116;11.656;2022-08-19T07:17:23;11.05;;;8.05;;
41923;SDS011;27613;48.116;11.656;2022-08-19T07:20:01;10.20;;;7.80;;
41923;SDS011;27613;48.116;11.656;2022-08-19T07:22:35;12.90;;;7.93;;
41923;SDS011;27613;48.116;11.656;2022-08-19T07:25:02;8.87;;;7.93;;
41923;SDS011;27613;48.116;11.656;2022-08-19T07:27:35;9.15;;;7.22;;
41923;SDS011;27613;48.116;11.656;2022-08-19T07:30:05;10.60;;;8.20;;
41923;SDS011;27613;48.116;11.656;2022-08-19T07:32:42;10.00;;;8.07;;
41923;SDS011;27613;48.116;11.656;2022-08-19T07:35:08;10.00;;;8.88;;
41923;SDS011;27613;48.116;11.656;2022-08-19T07:37:34;11.25;;;9.10;;
41923;SDS011;27613;48.116;11.656;2022-08-19T07:40:03;12.93;;;10.40;;
41923;SDS011;27613;48.116;11.656;2022-08-19T07:42:41;9.98;;;8.85;;
41923;SDS011;27613;48.116;11.656;2022-08-19T07:45:07;10.88;;;9.65;;
41923;SDS011;27613;48.116;11.656;2022-08-19T07:47:34;10.63;;;9.52;;
41923;SDS011;27613;48.116;11.656;2022-08-19T07:50:03;10.93;;;8.57;;
41923;SDS011;27613;48.116;11.656;2022-08-19T07:52:32;10.43;;;9.32;;
41923;SDS011;27613;48.116;11.656;2022-08-19T07:55:00;10.20;;;9.13;;
41923;SDS011;27613;48.116;11.656;2022-08-19T07:57:28;10.30;;;9.20;;
41923;SDS011;27613;48.116;11.656;2022-08-19T07:59:56;9.90;;;8.50;;
41923;SDS011;27613;48.116;11.656;2022-08-19T08:02:29;10.75;;;9.65;;
41923;SDS011;27613;48.116;11.656;2022-08-19T08:04:55;12.30;;;10.02;;
41923;SDS011;27613;48.116;11.656;2022-08-19T08:07:39;12.32;;;9.63;;
41923;SDS011;27613;48.116;11.656;2022-08-19T08:10:23;11.50;;;10.13;;
41923;SDS011;27613;48.116;11.656;2022-08-19T08:12:50;11.45;;;10.25;;
41923;SDS011;27613;48.116;11.656;2022-08-19T08:15:16;20.30;;;12.73;;
41923;SDS011;27613;48.116;11.656;2022-08-19T08:17:43;13.68;;;12.27;;
41923;SDS011;27613;48.116;11.656;2022-08-19T08:20:09;14.23;;;12.43;;
41923;SDS011;27613;48.116;11.656;2022-08-19T08:22:35;12.30;;;10.85;;
41923;SDS011;27613;48.116;11.656;2022-08-19T08:25:20;12.90;;;11.57;;
41923;SDS011;27613;48.116;11.656;2022-08-19T08:27:48;15.05;;;13.43;;
41923;SDS011;27613;48.116;11.656;2022-08-19T08:30:19;14.15;;;12.65;;
41923;SDS011;27613;48.116;11.656;2022-08-19T08:32:45;16.08;;;11.98;;
41923;SDS011;27613;48.116;11.656;2022-08-19T08:35:13;18.58;;;13.75;;
41923;SDS011;27613;48.116;11.656;2022-08-19T08:37:40;14.57;;;12.93;;
41923;SDS011;27613;48.116;11.656;2022-08-19T08:40:12;16.75;;;13.13;;
41923;SDS011;27613;48.116;11.656;2022-08-19T08:43:20;14.48;;;12.90;;
41923;SDS011;27613;48.116;11.656;2022-08-19T08:48:30;17.15;;;14.55;;
41923;SDS011;27613;48.116;11.656;2022-08-19T08:51:02;15.15;;;13.55;;
41923;SDS011;27613;48.116;11.656;2022-08-19T08:53:32;16.48;;;14.25;;
41923;SDS011;27613;48.116;11.656;2022-08-19T08:56:01;21.70;;;15.07;;
41923;SDS011;27613;48.116;11.656;2022-08-19T08:58:45;17.50;;;15.07;;
41923;SDS011;27613;48.116;11.656;2022-08-19T09:01:33;19.55;;;16.05;;
41923;SDS011;27613;48.116;11.656;2022-08-19T09:03:59;18.55;;;15.23;;
41923;SDS011;27613;48.116;11.656;2022-08-19T09:09:20;22.33;;;16.40;;
41923;SDS011;27613;48.116;11.656;2022-08-19T09:12:10;19.63;;;16.85;;
41923;SDS011;27613;48.116;11.656;2022-08-19T09:14:48;20.13;;;16.70;;
41923;SDS011;27613;48.116;11.656;2022-08-19T09:17:22;21.75;;;17.33;;
41923;SDS011;27613;48.116;11.656;2022-08-19T09:19:54;21.40;;;16.88;;
41923;SDS011;27613;48.116;11.656;2022-08-19T09:22:29;21.38;;;16.40;;
41923;SDS011;27613;48.116;11.656;2022-08-19T09:24:55;19.63;;;16.20;;
41923;SDS011;27613;48.116;11.656;2022-08-19T09:27:22;17.60;;;15.55;;
41923;SDS011;27613;48.116;11.656;2022-08-19T09:29:49;18.02;;;14.43;;
41923;SDS011;27613;48.116;11.656;2022-08-19T09:32:15;16.00;;;14.30;;
41923;SDS011;27613;48.116;11.656;2022-08-19T09:34:42;17.65;;;13.60;;
41923;SDS011;27613;48.116;11.656;2022-08-19T09:37:08;15.73;;;13.80;;
41923;SDS011;27613;48.116;11.656;2022-08-19T09:39:34;17.42;;;13.60;;
41923;SDS011;27613;48.116;11.656;2022-08-19T09:41:59;16.88;;;14.10;;
41923;SDS011;27613;48.116;11.656;2022-08-19T09:44:25;14.50;;;12.98;;
41923;SDS011;27613;48.116;11.656;2022-08-19T09:46:50;13.52;;;11.55;;
41923;SDS011;27613;48.116;11.656;2022-08-19T09:49:17;14.88;;;12.68;;
41923;SDS011;27613;48.116;11.656;2022-08-19T09:51:43;12.95;;;11.25;;
41923;SDS011;27613;48.116;11.656;2022-08-19T09:54:09;13.68;;;11.32;;
41923;SDS011;27613;48.116;11.656;2022-08-19T09:56:35;12.18;;;10.95;;
41923;SDS011;27613;48.116;11.656;2022-08-19T09:59:01;13.07;;;11.00;;
41923;SDS011;27613;48.116;11.656;2022-08-19T10:01:31;13.02;;;11.40;;
41923;SDS011;27613;48.116;11.656;2022-08-19T10:03:58;10.48;;;9.38;;
41923;SDS011;27613;48.116;11.656;2022-08-19T10:06:26;10.30;;;9.27;;
41923;SDS011;27613;48.116;11.656;2022-08-19T10:08:56;10.20;;;9.07;;
41923;SDS011;27613;48.116;11.656;2022-08-19T10:11:22;9.43;;;8.20;;
41923;SDS011;27613;48.116;11.656;2022-08-19T10:13:48;8.65;;;7.75;;
41923;SDS011;27613;48.116;11.656;2022-08-19T10:16:16;10.93;;;8.80;;
41923;SDS011;27613;48.116;11.656;2022-08-19T10:18:45;8.52;;;7.57;;
41923;SDS011;27613;48.116;11.656;2022-08-19T10:21:11;10.63;;;7.93;;
41923;SDS011;27613;48.116;11.656;2022-08-19T10:23:39;7.65;;;6.85;;
41923;SDS011;27613;48.116;11.656;2022-08-19T10:26:10;8.93;;;7.90;;
41923;SDS011;27613;48.116;11.656;2022-08-19T10:28:37;8.43;;;7.50;;
41923;SDS011;27613;48.116;11.656;2022-08-19T10:31:06;8.05;;;6.40;;
41923;SDS011;27613;48.116;11.656;2022-08-19T10:33:35;8.00;;;6.95;;
41923;SDS011;27613;48.116;11.656;2022-08-19T10:36:03;7.57;;;6.68;;
41923;SDS011;27613;48.116;11.656;2022-08-19T10:38:42;8.45;;;7.43;;
41923;SDS011;27613;48.116;11.656;2022-08-19T10:41:14;8.63;;;7.13;;
41923;SDS011;27613;48.116;11.656;2022-08-19T10:43:42;8.38;;;7.13;;
41923;SDS011;27613;48.116;11.656;2022-08-19T10:46:10;8.80;;;7.32;;
41923;SDS011;27613;48.116;11.656;2022-08-19T10:48:38;7.50;;;6.55;;
41923;SDS011;27613;48.116;11.656;2022-08-19T10:51:04;8.07;;;6.63;;
41923;SDS011;27613;48.116;11.656;2022-08-19T10:53:49;7.03;;;6.32;;
41923;SDS011;27613;48.116;11.656;2022-08-19T10:56:16;6.50;;;5.80;;
41923;SDS011;27613;48.116;11.656;2022-08-19T10:59:01;8.40;;;5.68;;
41923;SDS011;27613;48.116;11.656;2022-08-19T11:01:28;6.93;;;5.57;;
41923;SDS011;27613;48.116;11.656;2022-08-19T11:03:55;6.85;;;5.57;;
41923;SDS011;27613;48.116;11.656;2022-08-19T11:06:22;6.30;;;5.38;;
41923;SDS011;27613;48.116;11.656;2022-08-19T11:08:48;6.25;;;5.65;;
41923;SDS011;27613;48.116;11.656;2022-08-19T11:11:13;7.82;;;5.30;;
41923;SDS011;27613;48.116;11.656;2022-08-19T11:13:40;5.82;;;5.22;;
41923;SDS011;27613;48.116;11.656;2022-08-19T11:16:07;6.93;;;4.55;;
41923;SDS011;27613;48.116;11.656;2022-08-19T11:18:39;5.32;;;4.63;;
41923;SDS011;27613;48.116;11.656;2022-08-19T11:21:14;6.55;;;5.60;;
41923;SDS011;27613;48.116;11.656;2022-08-19T11:23:42;6.45;;;5.82;;
41923;SDS011;27613;48.116;11.656;2022-08-19T11:26:09;6.53;;;5.10;;
41923;SDS011;27613;48.116;11.656;2022-08-19T11:28:35;5.13;;;4.55;;
41923;SDS011;27613;48.116;11.656;2022-08-19T11:31:00;7.68;;;5.07;;
41923;SDS011;27613;48.116;11.656;2022-08-19T11:33:28;4.75;;;4.25;;
41923;SDS011;27613;48.116;11.656;2022-08-19T11:35:56;4.30;;;3.25;;
41923;SDS011;27613;48.116;11.656;2022-08-19T11:38:23;4.20;;;3.40;;
41923;SDS011;27613;48.116;11.656;2022-08-19T11:40:56;3.95;;;3.35;;
41923;SDS011;27613;48.116;11.656;2022-08-19T11:43:25;4.72;;;3.45;;
41923;SDS011;27613;48.116;11.656;2022-08-19T11:45:52;4.35;;;3.92;;
41923;SDS011;27613;48.116;11.656;2022-08-19T11:48:19;4.55;;;4.13;;
41923;SDS011;27613;48.116;11.656;2022-08-19T11:50:51;6.07;;;4.60;;
41923;SDS011;27613;48.116;11.656;2022-08-19T11:53:20;5.72;;;5.07;;
41923;SDS011;27613;48.116;11.656;2022-08-19T11:55:46;5.60;;;5.10;;
41923;SDS011;27613;48.116;11.656;2022-08-19T11:58:13;7.03;;;5.65;;
41923;SDS011;27613;48.116;11.656;2022-08-19T12:00:40;7.32;;;6.43;;
41923;SDS011;27613;48.116;11.656;2022-08-19T12:03:07;6.18;;;5.20;;
41923;SDS011;27613;48.116;11.656;2022-08-19T12:05:32;5.70;;;4.22;;
41923;SDS011;27613;48.116;11.656;2022-08-19T12:07:58;3.67;;;3.13;;
41923;SDS011;27613;48.116;11.656;2022-08-19T12:10:24;3.55;;;2.72;;
41923;SDS011;27613;48.116;11.656;2022-08-19T12:12:50;3.50;;;2.67;;
41923;SDS011;27613;48.116;11.656;2022-08-19T12:15:15;4.22;;;3.08;;
41923;SDS011;27613;48.116;11.656;2022-08-19T12:17:41;4.65;;;3.00;;
41923;SDS011;27613;48.116;11.656;2022-08-19T12:20:08;3.58;;;2.90;;
41923;SDS011;27613;48.116;11.656;2022-08-19T12:22:36;4.63;;;2.75;;
41923;SDS011;27613;48.116;11.656;2022-08-19T12:25:03;3.85;;;2.67;;
41923;SDS011;27613;48.116;11.656;2022-08-19T12:27:30;2.60;;;2.05;;
41923;SDS011;27613;48.116;11.656;2022-08-19T12:29:56;1.95;;;1.70;;
41923;SDS011;27613;48.116;11.656;2022-08-19T12:32:22;2.80;;;1.80;;
41923;SDS011;27613;48.116;11.656;2022-08-19T12:34:49;1.80;;;1.30;;
41923;SDS011;27613;48.116;11.656;2022-08-19T12:37:15;1.05;;;0.93;;
41923;SDS011;27613;48.116;11.656;2022-08-19T12:39:42;1.70;;;1.20;;
41923;SDS011;27613;48.116;11.656;2022-08-19T12:42:08;1.60;;;0.80;;
41923;SDS011;27613;48.116;11.656;2022-08-19T12:44:36;1.20;;;0.93;;
41923;SDS011;27613;48.116;11.656;2022-08-19T12:47:04;1.02;;;0.77;;
41923;SDS011;27613;48.116;11.656;2022-08-19T12:49:32;1.55;;;0.90;;
41923;SDS011;27613;48.116;11.656;2022-08-19T12:52:02;1.65;;;1.10;;
41923;SDS011;27613;48.116;11.656;2022-08-19T12:54:29;1.13;;;0.70;;
41923;SDS011;27613;48.116;11.656;2022-08-19T12:56:55;0.80;;;0.80;;
41923;SDS011;27613;48.116;11.656;2022-08-19T12:59:21;0.85;;;0.70;;
41923;SDS011;27613;48.116;11.656;2022-08-19T13:01:47;1.25;;;1.00;;
41923;SDS011;27613;48.116;11.656;2022-08-19T13:04:13;1.35;;;0.95;;
41923;SDS011;27613;48.116;11.656;2022-08-19T13:06:39;1.08;;;0.98;;
41923;SDS011;27613;48.116;11.656;2022-08-19T13:09:04;1.83;;;1.10;;
41923;SDS011;27613;48.116;11.656;2022-08-19T13:11:30;1.20;;;1.00;;
41923;SDS011;27613;48.116;11.656;2022-08-19T13:13:59;0.70;;;0.70;;
41923;SDS011;27613;48.116;11.656;2022-08-19T13:16:26;2.17;;;0.90;;
41923;SDS011;27613;48.116;11.656;2022-08-19T13:18:53;1.80;;;1.02;;
41923;SDS011;27613;48.116;11.656;2022-08-19T13:21:21;1.05;;;0.95;;
41923;SDS011;27613;48.116;11.656;2022-08-19T13:23:48;1.10;;;0.70;;
41923;SDS011;27613;48.116;11.656;2022-08-19T13:26:15;0.80;;;0.73;;
41923;SDS011;27613;48.116;11.656;2022-08-19T13:28:42;1.95;;;0.90;;
41923;SDS011;27613;48.116;11.656;2022-08-19T13:34:12;2.30;;;1.00;;
41923;SDS011;27613;48.116;11.656;2022-08-19T13:36:39;0.80;;;0.77;;
41923;SDS011;27613;48.116;11.656;2022-08-19T13:39:06;1.35;;;0.80;;
41923;SDS011;27613;48.116;11.656;2022-08-19T13:41:35;1.30;;;1.00;;
41923;SDS011;27613;48.116;11.656;2022-08-19T13:44:02;1.55;;;0.93;;
41923;SDS011;27613;48.116;11.656;2022-08-19T13:46:28;1.20;;;0.80;;
41923;SDS011;27613;48.116;11.656;2022-08-19T13:48:55;1.27;;;0.80;;
41923;SDS011;27613;48.116;11.656;2022-08-19T13:51:21;1.05;;;0.63;;
41923;SDS011;27613;48.116;11.656;2022-08-19T13:53:47;0.95;;;0.77;;
41923;SDS011;27613;48.116;11.656;2022-08-19T13:56:15;0.73;;;0.70;;
41923;SDS011;27613;48.116;11.656;2022-08-19T13:58:42;1.60;;;1.02;;
41923;SDS011;27613;48.116;11.656;2022-08-19T14:01:08;0.65;;;0.60;;
41923;SDS011;27613;48.116;11.656;2022-08-19T14:03:35;1.50;;;0.93;;
41923;SDS011;27613;48.116;11.656;2022-08-19T14:06:01;2.10;;;1.13;;
41923;SDS011;27613;48.116;11.656;2022-08-19T14:08:27;1.17;;;0.98;;
41923;SDS011;27613;48.116;11.656;2022-08-19T14:10:56;1.23;;;0.80;;
41923;SDS011;27613;48.116;11.656;2022-08-19T14:13:24;1.10;;;1.00;;
41923;SDS011;27613;48.116;11.656;2022-08-19T14:15:50;0.98;;;0.85;;
41923;SDS011;27613;48.116;11.656;2022-08-19T14:18:17;1.10;;;1.00;;
41923;SDS011;27613;48.116;11.656;2022-08-19T14:20:44;1.38;;;1.20;;
41923;SDS011;27613;48.116;11.656;2022-08-19T14:23:10;2.92;;;1.30;;
41923;SDS011;27613;48.116;11.656;2022-08-19T14:25:38;1.38;;;1.17;;
41923;SDS011;27613;48.116;11.656;2022-08-19T14:28:04;1.17;;;1.00;;
41923;SDS011;27613;48.116;11.656;2022-08-19T14:30:31;2.03;;;1.30;;
41923;SDS011;27613;48.116;11.656;2022-08-19T14:32:58;1.40;;;1.30;;
41923;SDS011;27613;48.116;11.656;2022-08-19T14:35:26;1.77;;;1.45;;
41923;SDS011;27613;48.116;11.656;2022-08-19T14:37:53;3.03;;;1.85;;
41923;SDS011;27613;48.116;11.656;2022-08-19T14:40:21;1.40;;;1.30;;
41923;SDS011;27613;48.116;11.656;2022-08-19T14:42:51;2.33;;;1.60;;
41923;SDS011;27613;48.116;11.656;2022-08-19T14:45:20;1.42;;;1.27;;
41923;SDS011;27613;48.116;11.656;2022-08-19T14:47:46;1.77;;;1.48;;
41923;SDS011;27613;48.116;11.656;2022-08-19T14:50:11;2.00;;;1.60;;
41923;SDS011;27613;48.116;11.656;2022-08-19T14:52:37;2.42;;;1.52;;
41923;SDS011;27613;48.116;11.656;2022-08-19T14:55:04;3.28;;;2.05;;
41923;SDS011;27613;48.116;11.656;2022-08-19T14:57:30;2.42;;;1.77;;
41923;SDS011;27613;48.116;11.656;2022-08-19T14:59:56;2.35;;;1.80;;
41923;SDS011;27613;48.116;11.656;2022-08-19T15:02:22;1.70;;;1.50;;
41923;SDS011;27613;48.116;11.656;2022-08-19T15:04:48;5.97;;;1.45;;